createdAt,value
2023-03-06T00:01:31.588Z,15.50
2023-03-06T00:04:01.323Z,16.00
2023-03-06T00:06:31.085Z,14.40
2023-03-06T00:09:00.674Z,14.10
2023-03-06T00:11:30.321Z,13.00
2023-03-06T00:13:59.913Z,13.60
2023-03-06T00:16:29.585Z,13.40
2023-03-06T00:18:59.247Z,13.30
2023-03-06T00:21:28.872Z,13.80
2023-03-06T00:23:58.540Z,14.70
2023-03-06T00:26:28.202Z,15.50
2023-03-06T00:28:58.590Z,16.20
2023-03-06T00:31:28.301Z,17.00
2023-03-06T00:33:57.901Z,18.10
2023-03-06T00:36:27.518Z,18.10
2023-03-06T00:38:58.323Z,18.90
2023-03-06T00:41:27.905Z,20.10
2023-03-06T00:43:58.362Z,19.80
2023-03-06T00:46:27.901Z,19.30
2023-03-06T00:48:58.742Z,20.70
2023-03-06T00:51:28.802Z,21.60
2023-03-06T00:53:58.408Z,21.10
2023-03-06T00:56:30.090Z,22.50
2023-03-06T00:58:59.896Z,21.30
2023-03-06T01:01:30.554Z,21.80
2023-03-06T01:04:00.112Z,21.80
2023-03-06T01:06:29.854Z,21.80
2023-03-06T01:08:59.543Z,22.50
2023-03-06T01:11:29.150Z,21.10
2023-03-06T01:13:58.761Z,21.80
2023-03-06T01:16:28.900Z,21.70
2023-03-06T01:18:58.566Z,20.40
2023-03-06T01:21:28.802Z,22.50
2023-03-06T01:23:59.475Z,21.90
2023-03-06T01:26:29.801Z,22.60
2023-03-06T01:28:59.815Z,21.60
2023-03-06T01:31:31.163Z,21.90
2023-03-06T01:34:01.394Z,20.10
2023-03-06T01:36:31.228Z,20.60
2023-03-06T01:39:03.103Z,18.70
2023-03-06T01:41:33.597Z,17.10
2023-03-06T01:44:03.561Z,16.80
2023-03-06T01:46:42.385Z,16.70
2023-03-06T01:49:21.003Z,15.40
2023-03-06T01:51:55.648Z,15.80
2023-03-06T01:54:28.737Z,14.40
2023-03-06T01:57:05.460Z,14.90
2023-03-06T01:59:38.305Z,15.60
2023-03-06T02:02:12.717Z,16.00
2023-03-06T02:04:43.638Z,15.60
2023-03-06T02:07:14.317Z,15.30
2023-03-06T02:09:43.875Z,14.40
2023-03-06T02:12:17.577Z,16.30
2023-03-06T02:14:47.709Z,16.10
2023-03-06T02:17:21.389Z,17.70
2023-03-06T02:19:59.570Z,17.20
2023-03-06T02:22:36.791Z,17.20
2023-03-06T02:25:14.833Z,17.40
2023-03-06T02:27:44.738Z,18.00
2023-03-06T02:30:17.690Z,16.60
2023-03-06T02:32:47.409Z,16.40
2023-03-06T02:35:21.772Z,15.80
2023-03-06T02:37:51.516Z,16.00
2023-03-06T02:40:23.358Z,15.10
2023-03-06T02:42:56.622Z,15.10
2023-03-06T02:45:32.822Z,13.90
2023-03-06T02:48:03.801Z,14.40
2023-03-06T02:50:34.021Z,14.30
2023-03-06T02:53:05.676Z,14.50
2023-03-06T02:55:35.955Z,14.00
2023-03-06T02:58:06.862Z,13.40
2023-03-06T03:00:37.484Z,12.50
2023-03-06T03:03:08.830Z,12.30
2023-03-06T03:05:39.573Z,12.50
2023-03-06T03:08:15.468Z,12.50
2023-03-06T03:10:45.874Z,12.00
2023-03-06T03:13:16.227Z,12.20
2023-03-06T03:15:46.817Z,12.30
2023-03-06T03:18:16.561Z,11.70
2023-03-06T03:20:46.217Z,12.10
2023-03-06T03:23:15.808Z,12.00
2023-03-06T03:25:45.610Z,11.40
2023-03-06T03:28:16.598Z,12.00
2023-03-06T03:30:46.365Z,11.90
2023-03-06T03:33:16.875Z,11.30
2023-03-06T03:35:56.831Z,11.80
2023-03-06T03:38:27.564Z,11.50
2023-03-06T03:40:57.797Z,12.30
2023-03-06T03:43:28.796Z,10.90
2023-03-06T03:45:58.873Z,11.40
2023-03-06T03:48:29.446Z,12.10
2023-03-06T03:51:06.501Z,11.80
2023-03-06T03:53:37.325Z,12.50
2023-03-06T03:56:08.631Z,12.20
2023-03-06T03:58:43.246Z,12.20
2023-03-06T04:01:13.165Z,11.40
2023-03-06T04:03:43.401Z,11.90
2023-03-06T04:06:14.342Z,12.50
2023-03-06T04:08:44.908Z,13.80
2023-03-06T04:11:15.273Z,12.40
2023-03-06T04:13:44.995Z,12.40
2023-03-06T04:16:14.648Z,11.80
2023-03-06T04:18:44.782Z,12.60
2023-03-06T04:21:14.384Z,12.30
2023-03-06T04:23:44.922Z,12.30
2023-03-06T04:26:15.599Z,12.60
2023-03-06T04:28:46.755Z,12.20
2023-03-06T04:31:17.062Z,12.40
2023-03-06T04:33:47.630Z,12.40
2023-03-06T04:36:28.353Z,12.30
2023-03-06T04:39:02.031Z,12.80
2023-03-06T04:41:32.725Z,12.10
2023-03-06T04:44:02.489Z,12.00
2023-03-06T04:46:33.463Z,12.70
2023-03-06T04:49:03.853Z,12.70
2023-03-06T04:51:36.897Z,13.60
2023-03-06T04:54:07.409Z,13.10
2023-03-06T04:56:36.950Z,13.70
2023-03-06T04:59:06.888Z,14.60
2023-03-06T05:01:38.596Z,14.60
2023-03-06T05:04:08.239Z,14.30
2023-03-06T05:06:38.847Z,14.30
2023-03-06T05:09:09.085Z,14.50
2023-03-06T05:11:39.692Z,13.60
2023-03-06T05:14:09.817Z,13.80
2023-03-06T05:16:39.448Z,14.60
2023-03-06T05:19:09.651Z,15.80
2023-03-06T05:21:39.211Z,16.10
2023-03-06T05:24:09.583Z,26.80
2023-03-06T05:26:39.125Z,19.60
2023-03-06T05:29:09.732Z,26.30
2023-03-06T05:31:39.396Z,26.70
2023-03-06T05:34:09.722Z,23.10
2023-03-06T05:36:39.948Z,22.80
2023-03-06T05:39:10.286Z,23.10
2023-03-06T05:41:40.752Z,22.50
2023-03-06T05:44:10.352Z,20.10
2023-03-06T05:46:39.887Z,21.30
2023-03-06T05:49:09.966Z,27.70
2023-03-06T05:51:40.624Z,25.00
2023-03-06T05:54:10.162Z,24.30
2023-03-06T05:56:42.793Z,26.40
2023-03-06T05:59:13.645Z,30.10
2023-03-06T06:01:43.768Z,36.50
2023-03-06T06:04:13.378Z,38.40
2023-03-06T06:06:43.046Z,32.50
2023-03-06T06:09:13.954Z,27.90
2023-03-06T06:11:43.628Z,27.10
2023-03-06T06:14:14.300Z,27.10
2023-03-06T06:16:44.232Z,26.90
2023-03-06T06:19:17.999Z,29.00
2023-03-06T06:21:49.817Z,24.70
2023-03-06T06:24:21.550Z,23.70
2023-03-06T06:26:53.013Z,22.60
2023-03-06T06:29:23.552Z,22.50
2023-03-06T06:31:54.084Z,23.00
2023-03-06T06:34:24.536Z,21.70
2023-03-06T06:36:55.018Z,22.60
2023-03-06T06:39:25.065Z,24.00
2023-03-06T06:42:11.507Z,23.90
2023-03-06T06:44:44.289Z,22.30
2023-03-06T06:47:24.058Z,24.40
2023-03-06T06:49:56.144Z,24.30
2023-03-06T06:52:26.080Z,24.10
2023-03-06T06:54:56.649Z,24.20
2023-03-06T06:57:26.209Z,24.60
2023-03-06T06:59:55.838Z,24.40
2023-03-06T07:02:25.739Z,21.80
2023-03-06T07:05:05.073Z,21.10
2023-03-06T07:07:36.989Z,38.00
2023-03-06T07:10:12.404Z,40.60
2023-03-06T07:12:42.026Z,102.00
2023-03-06T07:15:15.754Z,106.80
2023-03-06T07:17:48.187Z,48.30
2023-03-06T07:20:21.005Z,33.10
2023-03-06T07:22:51.931Z,83.10
2023-03-06T07:25:22.401Z,55.00
2023-03-06T07:27:54.483Z,34.00
2023-03-06T07:30:25.330Z,27.00
2023-03-06T07:32:56.384Z,24.30
2023-03-06T07:35:27.683Z,27.90
2023-03-06T07:37:57.441Z,26.10
2023-03-06T07:40:27.799Z,27.40
2023-03-06T07:43:12.952Z,26.00
2023-03-06T07:45:56.886Z,24.80
2023-03-06T07:48:26.634Z,26.20
2023-03-06T07:51:01.629Z,26.80
2023-03-06T07:53:31.548Z,24.40
2023-03-06T07:56:01.619Z,26.40
2023-03-06T07:58:31.227Z,24.60
2023-03-06T08:01:04.845Z,25.30
2023-03-06T08:03:34.684Z,27.10
2023-03-06T08:06:10.137Z,26.40
2023-03-06T08:08:41.211Z,24.80
2023-03-06T08:11:12.346Z,24.80
2023-03-06T08:13:42.025Z,25.50
2023-03-06T08:16:12.687Z,25.50
2023-03-06T08:18:45.140Z,26.20
2023-03-06T08:21:18.378Z,26.70
2023-03-06T08:23:48.669Z,24.80
2023-03-06T08:26:21.042Z,25.60
2023-03-06T08:28:51.941Z,25.70
2023-03-06T08:31:27.954Z,24.70
2023-03-06T08:34:00.884Z,25.70
2023-03-06T08:36:31.089Z,24.00
2023-03-06T08:39:01.037Z,24.40
2023-03-06T08:41:31.151Z,24.00
2023-03-06T08:44:01.103Z,25.30
2023-03-06T08:46:31.746Z,24.40
2023-03-06T08:49:01.625Z,25.00
2023-03-06T08:51:31.352Z,26.10
2023-03-06T08:54:01.604Z,26.30
2023-03-06T08:56:32.597Z,28.10
2023-03-06T08:59:04.464Z,29.60
2023-03-06T09:01:37.129Z,29.20
2023-03-06T09:04:10.090Z,29.90
2023-03-06T09:06:41.960Z,29.20
2023-03-06T09:09:12.999Z,32.60
2023-03-06T09:11:42.611Z,34.70
2023-03-06T09:14:12.211Z,32.70
2023-03-06T09:16:41.915Z,31.60
2023-03-06T09:19:12.265Z,31.00
2023-03-06T09:21:41.900Z,32.80
2023-03-06T09:24:11.598Z,33.00
2023-03-06T09:26:47.032Z,36.50
2023-03-06T09:29:17.719Z,36.10
2023-03-06T09:31:47.692Z,33.00
2023-03-06T09:34:18.168Z,32.60
2023-03-06T09:36:56.750Z,38.00
2023-03-06T09:39:27.522Z,34.60
2023-03-06T09:41:58.242Z,33.50
2023-03-06T09:44:30.468Z,31.50
2023-03-06T09:47:25.247Z,29.10
2023-03-06T09:50:09.264Z,25.80
2023-03-06T09:52:46.077Z,26.10
2023-03-06T09:55:18.496Z,26.30
2023-03-06T09:57:56.765Z,24.20
2023-03-06T10:00:32.907Z,23.70
2023-03-06T10:03:14.422Z,25.70
2023-03-06T10:05:47.503Z,40.90
2023-03-06T10:08:25.093Z,38.00
2023-03-06T10:11:01.522Z,32.50
2023-03-06T10:13:39.499Z,29.20
2023-03-06T10:16:22.080Z,28.80
2023-03-06T10:18:52.295Z,26.60
2023-03-06T10:21:32.606Z,25.90
2023-03-06T10:24:13.593Z,27.60
2023-03-06T10:26:49.654Z,26.30
2023-03-06T10:29:40.179Z,24.50
2023-03-06T10:32:18.664Z,33.30
2023-03-06T10:34:49.704Z,29.00
2023-03-06T10:37:21.881Z,28.80
2023-03-06T10:39:57.489Z,27.00
2023-03-06T10:42:28.919Z,27.00
2023-03-06T10:45:12.626Z,32.50
2023-03-06T10:47:43.610Z,40.60
2023-03-06T10:50:28.256Z,29.20
2023-03-06T10:53:04.469Z,24.20
2023-03-06T10:55:35.727Z,26.30
2023-03-06T10:58:27.926Z,27.60
2023-03-06T11:01:07.564Z,24.60
2023-03-06T11:03:37.701Z,22.30
2023-03-06T11:06:12.886Z,20.80
2023-03-06T11:08:45.281Z,22.20
2023-03-06T11:11:35.253Z,22.70
2023-03-06T11:14:16.321Z,15.90
2023-03-06T11:16:52.412Z,23.70
2023-03-06T11:19:27.071Z,20.70
2023-03-06T11:22:05.372Z,18.10
2023-03-06T11:24:39.631Z,18.80
2023-03-06T11:27:22.733Z,17.00
2023-03-06T11:29:54.703Z,15.90
2023-03-06T11:32:28.773Z,17.30
2023-03-06T11:35:04.129Z,17.90
2023-03-06T11:37:45.862Z,17.80
2023-03-06T11:40:23.182Z,17.20
2023-03-06T11:43:01.121Z,18.10
2023-03-06T11:45:36.688Z,16.80
2023-03-06T11:48:22.095Z,18.40
2023-03-06T11:50:53.626Z,19.30
2023-03-06T11:53:30.408Z,20.30
2023-03-06T11:56:09.762Z,23.00
2023-03-06T11:59:11.307Z,21.70
2023-03-06T12:01:45.907Z,21.20
2023-03-06T12:04:31.820Z,18.70
2023-03-06T12:07:15.485Z,19.20
2023-03-06T12:09:52.634Z,18.60
2023-03-06T12:12:38.745Z,19.40
2023-03-06T12:15:21.557Z,18.00
2023-03-06T12:18:19.794Z,18.10
2023-03-06T12:20:56.924Z,18.80
2023-03-06T12:23:50.027Z,19.20
2023-03-06T12:26:36.683Z,19.30
2023-03-06T12:29:28.572Z,25.80
2023-03-06T12:32:14.170Z,20.80
2023-03-06T12:35:01.525Z,19.50
2023-03-06T12:37:45.482Z,20.40
2023-03-06T12:40:36.008Z,20.00
2023-03-06T12:43:26.209Z,20.20
2023-03-06T12:46:01.969Z,21.40
2023-03-06T12:48:36.500Z,24.10
2023-03-06T12:51:10.817Z,24.80
2023-03-06T12:53:42.133Z,23.50
2023-03-06T12:56:17.257Z,23.80
2023-03-06T12:58:52.661Z,25.30
2023-03-06T13:02:04.047Z,27.70
2023-03-06T13:04:48.159Z,24.30
2023-03-06T13:07:42.333Z,26.70
2023-03-06T13:10:22.223Z,23.20
2023-03-06T13:12:56.290Z,22.10
2023-03-06T13:16:04.527Z,21.30
2023-03-06T13:19:03.926Z,19.00
2023-03-06T13:22:08.196Z,20.10
2023-03-06T13:24:37.936Z,20.30
2023-03-06T13:27:11.366Z,22.50
2023-03-06T13:30:19.011Z,22.70
2023-03-06T13:32:52.143Z,20.40
2023-03-06T13:35:54.433Z,21.10
2023-03-06T13:38:56.444Z,25.20
2023-03-06T13:41:57.694Z,20.60
2023-03-06T13:44:49.626Z,21.20
2023-03-06T13:47:32.300Z,21.50
2023-03-06T13:50:12.323Z,18.60
2023-03-06T13:52:55.162Z,18.40
2023-03-06T13:55:31.170Z,18.40
2023-03-06T13:58:17.123Z,18.70
2023-03-06T14:01:07.143Z,26.40
2023-03-06T14:04:01.603Z,44.30
2023-03-06T14:06:52.603Z,66.30
2023-03-06T14:09:28.192Z,33.30
2023-03-06T14:12:01.691Z,25.80
2023-03-06T14:14:38.785Z,43.50
2023-03-06T14:17:20.174Z,51.70
2023-03-06T14:19:51.361Z,40.60
2023-03-06T14:22:24.932Z,44.10
2023-03-06T14:25:00.143Z,27.80
2023-03-06T14:27:48.357Z,31.40
2023-03-06T14:30:20.974Z,35.90
2023-03-06T14:32:52.708Z,54.30
2023-03-06T14:35:29.918Z,41.80
2023-03-06T14:38:05.669Z,31.10
2023-03-06T14:40:41.313Z,29.30
2023-03-06T14:43:25.776Z,25.20
2023-03-06T14:46:01.117Z,27.20
2023-03-06T14:48:44.061Z,26.30
2023-03-06T14:51:19.163Z,37.60
2023-03-06T14:53:50.938Z,35.90
2023-03-06T14:56:25.973Z,33.50
2023-03-06T14:58:59.335Z,43.00
2023-03-06T15:01:34.285Z,47.80
2023-03-06T15:04:13.360Z,33.60
2023-03-06T15:06:45.088Z,36.30
2023-03-06T15:09:20.577Z,55.10
2023-03-06T15:11:56.319Z,59.50
2023-03-06T15:14:36.404Z,53.60
2023-03-06T15:17:38.565Z,39.00
2023-03-06T15:20:41.302Z,43.10
2023-03-06T15:23:34.170Z,37.70
2023-03-06T15:26:18.773Z,37.60
2023-03-06T15:29:03.589Z,30.00
2023-03-06T15:31:40.440Z,35.10
2023-03-06T15:34:22.860Z,42.00
2023-03-06T15:36:54.584Z,46.20
2023-03-06T15:39:33.043Z,34.40
2023-03-06T15:42:08.031Z,64.30
2023-03-06T15:44:37.627Z,70.40
2023-03-06T15:47:11.345Z,57.60
2023-03-06T15:49:41.260Z,48.30
2023-03-06T15:52:10.931Z,49.70
2023-03-06T15:54:40.562Z,42.90
2023-03-06T15:57:19.477Z,36.30
2023-03-06T15:59:49.515Z,33.90
2023-03-06T16:02:21.067Z,27.70
2023-03-06T16:04:52.006Z,27.10
2023-03-06T16:07:21.677Z,40.70
2023-03-06T16:09:51.271Z,33.50
2023-03-06T16:12:22.671Z,29.00
2023-03-06T16:14:52.315Z,25.20
2023-03-06T16:17:21.865Z,24.40
2023-03-06T16:19:51.469Z,25.60
2023-03-06T16:22:21.010Z,25.80
2023-03-06T16:24:51.330Z,29.10
2023-03-06T16:27:25.041Z,27.70
2023-03-06T16:29:54.609Z,27.80
2023-03-06T16:32:26.056Z,27.40
2023-03-06T16:34:57.250Z,34.50
2023-03-06T16:37:26.930Z,58.40
2023-03-06T16:39:56.484Z,63.40
2023-03-06T16:42:26.154Z,48.20
2023-03-06T16:44:55.873Z,51.00
2023-03-06T16:47:25.622Z,46.30
2023-03-06T16:49:57.470Z,38.70
2023-03-06T16:52:27.206Z,79.80
2023-03-06T16:54:56.746Z,42.00
2023-03-06T16:57:30.995Z,32.10
2023-03-06T17:00:00.824Z,35.30
2023-03-06T17:02:30.484Z,30.10
2023-03-06T17:05:00.191Z,29.20
2023-03-06T17:07:29.793Z,44.10
2023-03-06T17:09:59.533Z,30.80
2023-03-06T17:12:29.170Z,34.40
2023-03-06T17:14:58.921Z,37.90
2023-03-06T17:17:28.482Z,31.80
2023-03-06T17:19:58.302Z,26.30
2023-03-06T17:22:28.489Z,23.80
2023-03-06T17:24:58.109Z,29.80
2023-03-06T17:27:28.153Z,28.50
2023-03-06T17:29:58.346Z,22.10
2023-03-06T17:32:28.677Z,24.00
2023-03-06T17:34:58.697Z,22.60
2023-03-06T17:37:28.442Z,23.10
2023-03-06T17:39:58.040Z,24.20
2023-03-06T17:42:27.704Z,25.10
2023-03-06T17:44:57.246Z,23.80
2023-03-06T17:47:26.877Z,24.90
2023-03-06T17:49:56.452Z,23.70
2023-03-06T17:52:26.277Z,24.50
2023-03-06T17:54:55.872Z,26.00
2023-03-06T17:57:25.469Z,25.50
2023-03-06T17:59:55.927Z,27.40
2023-03-06T18:02:25.539Z,27.50
2023-03-06T18:04:57.577Z,27.50
2023-03-06T18:07:27.252Z,28.40
2023-03-06T18:09:56.837Z,26.80
2023-03-06T18:12:26.506Z,28.50
2023-03-06T18:14:56.317Z,26.30
2023-03-06T18:17:25.967Z,26.60
2023-03-06T18:19:56.274Z,26.20
2023-03-06T18:22:25.945Z,26.00
2023-03-06T18:24:55.543Z,26.80
2023-03-06T18:27:25.224Z,26.40
2023-03-06T18:29:55.116Z,27.50
2023-03-06T18:32:24.764Z,25.70
2023-03-06T18:34:55.194Z,27.20
2023-03-06T18:37:24.861Z,32.00
2023-03-06T18:39:54.505Z,36.80
2023-03-06T18:42:24.140Z,59.60
2023-03-06T18:44:53.743Z,66.00
2023-03-06T18:47:23.364Z,62.60
2023-03-06T18:49:52.950Z,47.10
2023-03-06T18:52:22.526Z,52.00
2023-03-06T18:54:52.948Z,58.10
2023-03-06T18:57:22.741Z,59.20
2023-03-06T18:59:52.455Z,75.20
2023-03-06T19:02:22.083Z,61.10
2023-03-06T19:04:52.856Z,55.30
2023-03-06T19:07:22.433Z,50.60
2023-03-06T19:09:52.029Z,51.50
2023-03-06T19:12:21.749Z,51.50
2023-03-06T19:14:51.579Z,52.90
2023-03-06T19:17:21.578Z,56.70
2023-03-06T19:19:52.185Z,46.50
2023-03-06T19:22:22.572Z,29.40
2023-03-06T19:24:52.139Z,30.10
2023-03-06T19:27:21.804Z,34.20
2023-03-06T19:29:51.434Z,32.90
2023-03-06T19:32:21.712Z,28.90
2023-03-06T19:34:51.520Z,27.90
2023-03-06T19:37:21.153Z,31.80
2023-03-06T19:39:50.882Z,31.60
2023-03-06T19:42:20.597Z,27.00
2023-03-06T19:44:50.206Z,22.10
2023-03-06T19:47:19.841Z,21.00
2023-03-06T19:49:49.431Z,20.90
2023-03-06T19:52:19.094Z,20.20
2023-03-06T19:54:48.673Z,20.00
2023-03-06T19:57:18.920Z,20.70
2023-03-06T19:59:51.558Z,20.70
2023-03-06T20:02:25.944Z,21.10
2023-03-06T20:04:56.249Z,22.30
2023-03-06T20:07:25.972Z,22.90
2023-03-06T20:09:59.806Z,22.20
2023-03-06T20:12:29.865Z,22.80
2023-03-06T20:14:59.475Z,21.90
2023-03-06T20:17:29.475Z,22.80
2023-03-06T20:19:59.689Z,22.20
2023-03-06T20:22:29.281Z,21.40
2023-03-06T20:24:58.873Z,22.70
2023-03-06T20:27:28.510Z,22.00
2023-03-06T20:29:58.352Z,21.60
2023-03-06T20:32:28.133Z,21.10
2023-03-06T20:34:57.869Z,20.80
2023-03-06T20:37:27.501Z,20.40
2023-03-06T20:39:57.178Z,19.60
2023-03-06T20:42:26.817Z,20.10
2023-03-06T20:44:56.833Z,19.30
2023-03-06T20:47:26.646Z,18.50
2023-03-06T20:49:56.656Z,18.50
2023-03-06T20:52:26.412Z,18.80
2023-03-06T20:54:55.949Z,17.90
2023-03-06T20:57:25.657Z,18.20
2023-03-06T20:59:55.258Z,18.30
2023-03-06T21:02:24.868Z,19.00
2023-03-06T21:04:55.227Z,18.10
2023-03-06T21:07:24.892Z,18.50
2023-03-06T21:09:54.514Z,18.40
2023-03-06T21:12:24.124Z,18.20
2023-03-06T21:14:53.714Z,19.00
2023-03-06T21:17:24.974Z,18.90
2023-03-06T21:19:54.611Z,19.70
2023-03-06T21:22:24.153Z,19.50
2023-03-06T21:24:54.038Z,18.80
2023-03-06T21:27:23.687Z,19.60
2023-03-06T21:29:53.293Z,20.80
2023-03-06T21:32:23.064Z,21.30
2023-03-06T21:34:52.881Z,21.70
2023-03-06T21:37:22.665Z,22.10
2023-03-06T21:39:52.399Z,21.90
2023-03-06T21:42:22.017Z,21.60
2023-03-06T21:44:51.569Z,22.30
2023-03-06T21:47:21.207Z,23.30
2023-03-06T21:49:50.784Z,21.80
2023-03-06T21:52:20.319Z,23.50
2023-03-06T21:54:51.227Z,22.80
2023-03-06T21:57:20.798Z,22.60
2023-03-06T21:59:50.352Z,22.50
2023-03-06T22:02:19.974Z,22.20
2023-03-06T22:04:52.123Z,21.50
2023-03-06T22:07:26.876Z,23.00
2023-03-06T22:09:56.522Z,23.80
2023-03-06T22:12:26.183Z,23.40
2023-03-06T22:14:56.240Z,23.70
2023-03-06T22:17:25.869Z,24.40
2023-03-06T22:19:55.493Z,23.50
2023-03-06T22:22:25.495Z,25.00
2023-03-06T22:24:55.172Z,25.50
2023-03-06T22:27:24.935Z,24.90
2023-03-06T22:29:54.526Z,25.50
2023-03-06T22:32:24.229Z,25.10
2023-03-06T22:34:53.877Z,25.70
2023-03-06T22:37:23.438Z,26.70
2023-03-06T22:39:53.038Z,25.50
2023-03-06T22:42:22.617Z,26.20
2023-03-06T22:44:52.430Z,26.20
2023-03-06T22:47:22.000Z,26.60
2023-03-06T22:49:51.537Z,27.80
2023-03-06T22:52:21.134Z,27.70
2023-03-06T22:54:50.726Z,28.90
2023-03-06T22:57:20.251Z,29.50
2023-03-06T22:59:49.830Z,29.50
2023-03-06T23:02:19.351Z,30.30
2023-03-06T23:04:52.682Z,29.70
2023-03-06T23:07:22.229Z,30.30
2023-03-06T23:09:51.828Z,31.10
2023-03-06T23:12:41.120Z,31.60
2023-03-06T23:15:29.653Z,32.20
2023-03-06T23:18:17.912Z,32.60
2023-03-06T23:21:08.749Z,34.30
2023-03-06T23:23:57.152Z,35.10
2023-03-06T23:26:28.509Z,34.00
2023-03-06T23:28:58.418Z,35.50
2023-03-06T23:31:29.789Z,37.10
2023-03-06T23:34:01.381Z,36.50
2023-03-06T23:36:31.756Z,37.30
2023-03-06T23:39:01.335Z,37.70
2023-03-06T23:41:31.193Z,37.30
2023-03-06T23:44:01.133Z,39.60
2023-03-06T23:46:30.750Z,40.80
2023-03-06T23:49:00.325Z,40.50
2023-03-06T23:51:29.895Z,44.00
2023-03-06T23:54:00.394Z,39.50
2023-03-06T23:56:30.442Z,43.20
2023-03-06T23:59:00.151Z,43.90
